createdAt,value
2022-09-23T00:12:08.150Z,90.89
2022-09-23T00:27:10.730Z,92.41
2022-09-23T00:42:19.094Z,92.63
2022-09-23T00:57:22.076Z,92.58
2022-09-23T01:12:41.405Z,92.42
2022-09-23T01:28:17.578Z,92.75
2022-09-23T01:43:50.985Z,91.87
2022-09-23T01:59:11.350Z,90.56
2022-09-23T02:14:31.399Z,90.89
2022-09-23T02:29:57.763Z,92.18
2022-09-23T02:44:59.733Z,92.98
2022-09-23T03:00:02.525Z,93.52
2022-09-23T03:15:31.888Z,94.67
2022-09-23T03:30:38.340Z,94.05
2022-09-23T03:45:42.897Z,95.04
2022-09-23T04:00:45.413Z,96.24
2022-09-23T04:15:50.348Z,96.77
2022-09-23T04:30:52.293Z,96.82
2022-09-23T04:46:09.590Z,96.50
2022-09-23T05:01:34.708Z,95.17
2022-09-23T05:16:36.982Z,90.93
2022-09-23T05:31:39.139Z,84.96
2022-09-23T05:46:41.477Z,78.90
2022-09-23T06:01:44.257Z,76.23
2022-09-23T06:16:46.242Z,72.60
2022-09-23T06:31:50.060Z,67.24
2022-09-23T06:46:52.136Z,59.86
2022-09-23T07:01:55.076Z,54.49
2022-09-23T07:16:57.527Z,51.71
2022-09-23T07:32:09.652Z,47.18
2022-09-23T07:47:13.123Z,49.70
2022-09-23T08:02:15.682Z,44.74
2022-09-23T08:17:17.694Z,50.38
2022-09-23T08:32:19.532Z,45.49
2022-09-23T08:47:34.993Z,53.01
2022-09-23T09:02:37.016Z,48.48
2022-09-23T09:17:40.691Z,46.57
2022-09-23T09:33:15.828Z,46.53
2022-09-23T09:48:24.922Z,40.49
2022-09-23T10:03:34.215Z,39.92
2022-09-23T10:18:50.321Z,36.09
2022-09-23T10:33:55.732Z,38.05
2022-09-23T10:49:15.919Z,35.97
2022-09-23T11:04:30.221Z,36.09
2022-09-23T11:20:02.553Z,32.04
2022-09-23T11:35:21.458Z,31.93
2022-09-23T11:50:34.412Z,35.39
2022-09-23T12:05:47.768Z,36.77
2022-09-23T12:21:49.786Z,38.54
2022-09-23T12:36:52.138Z,39.85
2022-09-23T12:52:12.498Z,40.16
2022-09-23T13:07:18.061Z,41.98
2022-09-23T13:22:42.154Z,42.06
2022-09-23T13:37:49.338Z,42.82
2022-09-23T13:52:55.527Z,43.25
2022-09-23T14:07:57.658Z,43.75
2022-09-23T14:23:14.470Z,44.45
2022-09-23T14:38:45.393Z,46.16
2022-09-23T14:53:48.923Z,46.61
2022-09-23T15:08:53.374Z,47.29
2022-09-23T15:23:57.475Z,48.55
2022-09-23T15:39:04.611Z,49.65
2022-09-23T15:54:12.796Z,50.13
2022-09-23T16:09:17.668Z,51.06
2022-09-23T16:24:20.982Z,51.77
2022-09-23T16:39:24.407Z,52.97
2022-09-23T16:54:26.375Z,54.02
2022-09-23T17:09:29.429Z,54.87
2022-09-23T17:24:31.339Z,55.44
2022-09-23T17:39:33.279Z,56.08
2022-09-23T17:54:36.791Z,57.92
2022-09-23T18:09:38.686Z,59.45
2022-09-23T18:24:42.456Z,60.43
2022-09-23T18:39:44.663Z,61.35
2022-09-23T18:54:46.913Z,62.92
2022-09-23T19:09:49.108Z,63.87
2022-09-23T19:24:50.983Z,64.84
2022-09-23T19:39:52.949Z,65.60
2022-09-23T19:54:55.084Z,66.05
2022-09-23T20:09:57.911Z,66.15
2022-09-23T20:25:00.892Z,67.36
2022-09-23T20:40:03.458Z,69.21
2022-09-23T20:55:05.997Z,70.44
2022-09-23T21:10:08.751Z,71.67
2022-09-23T21:25:27.841Z,73.03
2022-09-23T21:40:48.707Z,74.97
2022-09-23T21:55:51.192Z,76.77
2022-09-23T22:10:53.067Z,79.74
2022-09-23T22:26:02.811Z,81.06
2022-09-23T22:41:05.161Z,81.36
2022-09-23T22:56:07.218Z,80.46
2022-09-23T23:11:11.978Z,83.90
2022-09-23T23:26:20.232Z,85.26
2022-09-23T23:41:23.099Z,86.03
2022-09-23T23:56:26.267Z,86.27
